Time;durP1;ratioP1;P1;durP2;ratioP2;P2;SDS_P1;SDS_P2;PMS_P1;PMS_P2;Temp;Humidity;BMP_temperature;BMP_pressure;BME280_temperature;BME280_humidity;BME280_pressure;Samples;Min_cycle;Max_cycle;Signal;HPM_P1;HPM_P2
2023/03/20 00:01:23;;;;;;;15.20;11.18;;;;;;;10.10;100.00;101863.13;5114446;28;20048;-65
2023/03/20 00:03:51;;;;;;;15.98;12.43;;;;;;;10.09;100.00;101861.47;5105168;27;20068;-65
2023/03/20 00:06:20;;;;;;;16.35;10.98;;;;;;;10.08;100.00;101861.69;5096808;28;20069;-65
2023/03/20 00:08:50;;;;;;;19.00;13.63;;;;;;;10.05;100.00;101865.72;5098016;28;20050;-61
2023/03/20 00:11:33;;;;;;;19.63;14.45;;;;;;;10.02;100.00;101864.31;5100631;28;20082;-64
2023/03/20 00:14:04;;;;;;;18.15;14.00;;;;;;;9.95;100.00;101862.78;5102736;28;20051;-64
2023/03/20 00:16:34;;;;;;;17.90;13.18;;;;;;;9.96;100.00;101853.56;5108035;28;20108;-63
2023/03/20 00:19:03;;;;;;;17.65;12.23;;;;;;;9.98;100.00;101851.41;5126249;28;20051;-63
2023/03/20 00:21:31;;;;;;;14.93;10.45;;;;;;;10.01;100.00;101850.94;5115035;28;20118;-64
2023/03/20 00:23:59;;;;;;;15.98;10.95;;;;;;;10.03;100.00;101854.25;5112600;28;20426;-65
2023/03/20 00:26:32;;;;;;;18.67;10.35;;;;;;;10.04;100.00;101853.19;5113708;28;20054;-65
2023/03/20 00:29:01;;;;;;;15.65;9.82;;;;;;;10.05;100.00;101856.72;5079782;28;20048;-65
2023/03/20 00:31:35;;;;;;;15.88;10.27;;;;;;;10.05;100.00;101851.28;5096267;28;20051;-64
2023/03/20 00:34:08;;;;;;;15.52;9.60;;;;;;;10.05;100.00;101845.84;5112131;27;20067;-64
2023/03/20 00:36:36;;;;;;;16.25;9.55;;;;;;;10.03;100.00;101844.19;5107702;28;20044;-66
2023/03/20 00:39:04;;;;;;;14.85;8.98;;;;;;;10.01;100.00;101840.88;5093002;28;20048;-65
2023/03/20 00:41:37;;;;;;;9.68;5.07;;;;;;;10.08;100.00;101834.47;5093024;28;20074;-65
2023/03/20 00:44:18;;;;;;;13.43;7.68;;;;;;;10.07;100.00;101828.19;5103761;28;20048;-65
2023/03/20 00:46:51;;;;;;;13.15;6.60;;;;;;;10.07;100.00;101822.75;5095909;28;20122;-65
2023/03/20 00:49:24;;;;;;;12.55;7.40;;;;;;;10.04;100.00;101817.78;5112861;28;20047;-64
2023/03/20 00:51:52;;;;;;;13.52;7.25;;;;;;;10.01;100.00;101807.38;5079762;28;20126;-65
2023/03/20 00:54:19;;;;;;;15.95;7.95;;;;;;;10.00;100.00;101814.69;5114290;28;20039;-65
2023/03/20 00:56:55;;;;;;;21.00;8.90;;;;;;;10.02;100.00;101815.28;5113808;28;20070;-65
2023/03/20 00:59:25;;;;;;;16.80;7.97;;;;;;;9.97;100.00;101823.34;5100036;28;20055;-66
2023/03/20 01:01:53;;;;;;;13.65;7.18;;;;;;;9.94;100.00;101820.28;5098938;28;20510;-65
2023/03/20 01:04:21;;;;;;;13.23;7.47;;;;;;;9.91;100.00;101824.31;5111373;27;20144;-66
2023/03/20 01:06:51;;;;;;;14.30;7.35;;;;;;;9.89;100.00;101837.34;5101001;28;20048;-65
2023/03/20 01:09:19;;;;;;;16.58;8.05;;;;;;;9.87;100.00;101839.47;5113065;28;20044;-65
2023/03/20 01:11:46;;;;;;;16.10;7.60;;;;;;;9.88;100.00;101856.63;5113879;28;20404;-65
2023/03/20 01:14:15;;;;;;;15.63;8.00;;;;;;;9.86;100.00;101856.03;5112217;28;20059;-65
2023/03/20 01:16:43;;;;;;;16.38;8.48;;;;;;;9.79;100.00;101859.72;5112635;28;20118;-64
2023/03/20 01:19:15;;;;;;;17.17;8.25;;;;;;;9.78;100.00;101866.22;5113725;28;20048;-65
2023/03/20 01:21:43;;;;;;;15.57;8.30;;;;;;;9.79;100.00;101865.16;5113283;28;20056;-66
2023/03/20 01:24:11;;;;;;;18.48;8.85;;;;;;;9.79;100.00;101858.91;5112906;28;20398;-65
2023/03/20 01:26:41;;;;;;;15.10;7.57;;;;;;;9.80;100.00;101850.47;5105189;28;20118;-66
2023/03/20 01:29:23;;;;;;;15.45;8.32;;;;;;;9.79;100.00;101859.72;5093882;28;20063;-65
2023/03/20 01:31:52;;;;;;;17.20;9.10;;;;;;;9.76;100.00;101857.44;5075237;28;20052;-67
2023/03/20 01:34:23;;;;;;;18.15;8.48;;;;;;;9.72;100.00;101867.19;5089484;28;20058;-64
2023/03/20 01:36:56;;;;;;;15.18;8.45;;;;;;;9.69;100.00;101864.94;5094003;28;20075;-65
2023/03/20 01:39:32;;;;;;;14.38;8.43;;;;;;;9.68;100.00;101867.88;5092384;28;20139;-66
2023/03/20 01:42:01;;;;;;;17.17;9.50;;;;;;;9.65;100.00;101871.09;5092783;28;20141;-64
2023/03/20 01:44:32;;;;;;;16.45;9.00;;;;;;;9.65;100.00;101869.19;5095376;28;20040;-65
2023/03/20 01:47:02;;;;;;;15.82;8.45;;;;;;;9.62;100.00;101869.66;5114361;28;20466;-64
2023/03/20 01:49:48;;;;;;;18.73;9.32;;;;;;;9.65;100.00;101869.19;5079020;28;20048;-65
2023/03/20 01:52:15;;;;;;;;;;;;;;;9.66;100.00;101867.28;5097944;28;20068;-65
2023/03/20 01:54:43;;;;;;;16.40;8.88;;;;;;;9.66;100.00;101864.56;5092534;28;20364;-65
2023/03/20 01:57:16;;;;;;;18.27;9.02;;;;;;;9.64;100.00;101856.63;5092250;28;20099;-65
2023/03/20 01:59:53;;;;;;;16.25;8.80;;;;;;;9.60;100.00;101855.47;5075571;28;20051;-65
2023/03/20 02:02:24;;;;;;;20.40;10.43;;;;;;;9.58;100.00;101857.59;5086092;28;20108;-63
2023/03/20 02:05:03;;;;;;;18.88;9.15;;;;;;;9.55;100.00;101858.88;5095416;28;20124;-65
2023/03/20 02:07:34;;;;;;;15.45;8.68;;;;;;;9.52;100.00;101847.63;5064689;28;20070;-66
2023/03/20 02:10:08;;;;;;;18.33;9.45;;;;;;;9.53;100.00;101849.31;5059032;28;20078;-64
2023/03/20 02:12:46;;;;;;;16.45;8.48;;;;;;;9.51;100.00;101852.25;5096795;28;20044;-65
2023/03/20 02:15:26;;;;;;;13.35;7.63;;;;;;;9.52;100.00;101850.34;5095548;28;20434;-64
2023/03/20 02:18:14;;;;;;;16.45;9.18;;;;;;;9.51;100.00;101846.00;5095565;28;20059;-65
2023/03/20 02:21:01;;;;;;;15.30;9.32;;;;;;;9.50;100.00;101847.88;5095158;28;20081;-65
2023/03/20 02:23:42;;;;;;;18.33;9.95;;;;;;;9.46;100.00;101854.03;5107756;27;20384;-65
2023/03/20 02:26:21;;;;;;;22.70;10.65;;;;;;;9.44;100.00;101861.59;5098754;28;20094;-65
2023/03/20 02:29:04;;;;;;;21.63;11.15;;;;;;;9.36;100.00;101869.03;5098790;28;20082;-65
2023/03/20 02:31:53;;;;;;;18.45;10.95;;;;;;;9.36;100.00;101862.78;5115678;28;20050;-64
2023/03/20 02:34:41;;;;;;;20.83;11.88;;;;;;;9.35;100.00;101874.69;5100313;27;20050;-64
2023/03/20 02:37:29;;;;;;;18.25;11.50;;;;;;;9.32;100.00;101870.56;5097043;28;20052;-64
2023/03/20 02:40:24;;;;;;;22.45;12.05;;;;;;;9.32;100.00;101867.00;5097153;28;20044;-64
2023/03/20 02:43:11;;;;;;;21.10;11.43;;;;;;;9.32;100.00;101869.72;5094746;28;20048;-64
2023/03/20 02:45:44;;;;;;;21.80;13.05;;;;;;;9.32;100.00;101867.00;5102188;27;20044;-65
2023/03/20 02:48:30;;;;;;;20.95;11.70;;;;;;;9.31;100.00;101858.03;5115646;28;20055;-65
2023/03/20 02:51:04;;;;;;;19.92;13.10;;;;;;;9.31;100.00;101852.59;5098746;28;20158;-63
2023/03/20 02:53:50;;;;;;;15.88;10.55;;;;;;;9.33;100.00;101844.19;5099430;27;20043;-65
2023/03/20 02:56:19;;;;;;;20.30;12.63;;;;;;;9.35;100.00;101844.78;5099786;28;20048;-65
2023/03/20 02:58:50;;;;;;;17.70;11.40;;;;;;;9.35;100.00;101829.28;5100239;28;20165;-63
2023/03/20 03:01:32;;;;;;;18.40;11.27;;;;;;;9.37;100.00;101837.22;5098781;28;20067;-65
2023/03/20 03:04:07;;;;;;;19.35;11.48;;;;;;;9.42;100.00;101836.50;5107398;27;20039;-63
2023/03/20 03:06:37;;;;;;;22.23;14.95;;;;;;;9.33;100.00;101828.72;5097385;28;20097;-64
2023/03/20 03:09:15;;;;;;;21.27;14.32;;;;;;;9.29;100.00;101837.56;5099126;28;20048;-63
2023/03/20 03:11:52;;;;;;;24.45;14.57;;;;;;;9.27;100.00;101836.97;5100450;28;20051;-64
2023/03/20 03:14:47;;;;;;;19.92;13.77;;;;;;;9.25;100.00;101826.31;5090532;28;20051;-65
2023/03/20 03:17:19;;;;;;;24.38;13.30;;;;;;;9.28;100.00;101827.75;5073115;28;20431;-63
2023/03/20 03:19:59;;;;;;;22.23;13.50;;;;;;;9.29;100.00;101822.06;5079023;28;20048;-65
2023/03/20 03:22:30;;;;;;;20.92;14.32;;;;;;;9.30;100.00;101812.03;5077758;28;20074;-64
2023/03/20 03:24:58;;;;;;;24.35;14.30;;;;;;;9.35;100.00;101809.41;5093902;28;20059;-65
2023/03/20 03:27:35;;;;;;;15.80;11.05;;;;;;;9.35;100.00;101804.81;5078332;28;20078;-66
2023/03/20 03:30:11;;;;;;;14.80;8.95;;;;;;;9.42;100.00;101793.81;5097101;28;20044;-65
2023/03/20 03:32:46;;;;;;;12.07;8.05;;;;;;;9.49;100.00;101788.25;5098403;28;20407;-67
2023/03/20 03:35:16;;;;;;;13.40;8.63;;;;;;;9.48;100.00;101787.44;5103958;27;20040;-65
2023/03/20 03:37:59;;;;;;;17.35;9.73;;;;;;;9.49;100.00;101791.81;5100131;28;20055;-65
2023/03/20 03:40:31;;;;;;;20.48;12.38;;;;;;;9.39;100.00;101800.56;5097052;28;20062;-65
2023/03/20 03:43:06;;;;;;;19.05;12.65;;;;;;;9.36;100.00;101798.31;5095407;27;20052;-64
2023/03/20 03:45:39;;;;;;;16.20;10.93;;;;;;;9.31;100.00;101800.91;5093893;28;20120;-66
2023/03/20 03:48:17;;;;;;;19.20;11.50;;;;;;;9.33;100.00;101803.38;5076707;28;20048;-65
2023/03/20 03:50:55;;;;;;;15.95;9.55;;;;;;;9.31;100.00;101802.81;5077296;28;20105;-64
2023/03/20 03:53:35;;;;;;;19.55;12.77;;;;;;;9.27;100.00;101799.72;5114750;27;20047;-65
2023/03/20 03:56:07;;;;;;;17.23;11.50;;;;;;;9.29;100.00;101792.16;5124176;27;20059;-64
2023/03/20 03:58:51;;;;;;;20.02;11.93;;;;;;;9.27;100.00;101788.84;5132897;27;20112;-63
2023/03/20 04:01:20;;;;;;;17.58;10.85;;;;;;;9.24;100.00;101789.31;5096552;28;20051;-63
2023/03/20 04:03:57;;;;;;;19.48;12.27;;;;;;;9.17;100.00;101791.31;5096940;28;20511;-65
2023/03/20 04:06:27;;;;;;;14.35;9.63;;;;;;;9.14;100.00;101789.91;5111749;28;20067;-64
2023/03/20 04:08:54;;;;;;;17.70;11.90;;;;;;;9.15;100.00;101785.28;5128248;28;20103;-64
2023/03/20 04:11:24;;;;;;;17.05;11.02;;;;;;;9.11;100.00;101792.25;5082376;28;20078;-64
2023/03/20 04:13:53;;;;;;;16.60;10.00;;;;;;;9.13;100.00;101792.84;5098296;28;20043;-65
2023/03/20 04:16:22;;;;;;;15.52;9.57;;;;;;;9.09;100.00;101788.94;5097836;28;20212;-66
2023/03/20 04:18:50;;;;;;;22.38;12.55;;;;;;;9.11;100.00;101787.63;5116569;28;20036;-66
2023/03/20 04:21:18;;;;;;;17.70;12.25;;;;;;;9.12;100.00;101780.34;5118042;27;20575;-64
2023/03/20 04:23:47;;;;;;;15.77;10.75;;;;;;;9.06;100.00;101783.97;5081937;28;20052;-66
2023/03/20 04:26:15;;;;;;;15.50;9.77;;;;;;;9.07;100.00;101778.31;5098786;28;20040;-65
2023/03/20 04:28:43;;;;;;;12.50;7.85;;;;;;;9.11;100.00;101776.75;5093338;28;20131;-65
2023/03/20 04:31:40;;;;;;;10.98;7.00;;;;;;;9.17;100.00;101777.72;5040807;28;20059;-65
2023/03/20 04:34:15;;;;;;;12.23;7.68;;;;;;;9.16;100.00;101771.47;5074806;28;20048;-65
2023/03/20 04:37:07;;;;;;;15.30;9.90;;;;;;;9.08;100.00;101771.81;5111126;27;20054;-64
2023/03/20 04:39:49;;;;;;;16.15;10.00;;;;;;;9.00;100.00;101766.72;5113096;28;20050;-66
2023/03/20 04:42:17;;;;;;;13.48;7.75;;;;;;;9.03;100.00;101765.41;5076377;28;20143;-65
2023/03/20 04:44:45;;;;;;;10.43;6.00;;;;;;;9.19;100.00;101756.56;5092489;28;20079;-65
2023/03/20 04:47:13;;;;;;;9.35;6.18;;;;;;;9.23;100.00;101751.47;5092486;28;20055;-64
2023/03/20 04:49:42;;;;;;;13.93;8.38;;;;;;;9.15;100.00;101756.19;5092677;28;20052;-64
2023/03/20 04:52:10;;;;;;;11.05;6.60;;;;;;;9.19;100.00;101751.13;5092717;28;20047;-65
2023/03/20 04:54:41;;;;;;;10.95;6.90;;;;;;;9.12;100.00;101750.44;5112768;28;20046;-65
2023/03/20 04:57:08;;;;;;;11.20;6.45;;;;;;;9.16;100.00;101752.44;5114175;28;20047;-66
2023/03/20 04:59:37;;;;;;;19.42;11.90;;;;;;;8.89;100.00;101756.66;5095350;28;20130;-65
2023/03/20 05:02:05;;;;;;;20.77;13.07;;;;;;;8.64;100.00;101767.72;5061879;28;20050;-65
2023/03/20 05:04:33;;;;;;;20.25;13.30;;;;;;;8.49;100.00;101777.09;5113342;28;20134;-65
2023/03/20 05:07:02;;;;;;;19.50;11.95;;;;;;;8.43;100.00;101778.00;5102975;28;20557;-65
2023/03/20 05:09:38;;;;;;;18.15;11.93;;;;;;;8.43;100.00;101779.91;5092178;28;20492;-65
2023/03/20 05:12:08;;;;;;;19.27;11.90;;;;;;;8.45;100.00;101766.94;5111317;28;20052;-65
2023/03/20 05:14:54;;;;;;;19.48;11.50;;;;;;;8.56;100.00;101770.72;5112302;28;20393;-65
2023/03/20 05:17:37;;;;;;;18.65;11.07;;;;;;;8.60;100.00;101769.22;5112655;28;20055;-65
2023/03/20 05:20:27;;;;;;;19.08;11.27;;;;;;;8.80;100.00;101758.88;5112164;28;20194;-65
2023/03/20 05:23:02;;;;;;;17.88;10.15;;;;;;;8.76;100.00;101752.25;5112447;28;20117;-66
2023/03/20 05:26:02;;;;;;;13.50;7.80;;;;;;;9.00;100.00;101760.47;5100602;28;20421;-65
2023/03/20 05:28:38;;;;;;;17.67;11.02;;;;;;;8.88;100.00;101755.00;5112555;28;20043;-64
2023/03/20 05:31:14;;;;;;;17.17;9.40;;;;;;;8.83;100.00;101765.75;5092669;28;20373;-67
2023/03/20 05:34:00;;;;;;;15.85;8.90;;;;;;;8.85;100.00;101760.88;5078260;28;20127;-64
2023/03/20 05:36:39;;;;;;;16.00;9.27;;;;;;;8.83;100.00;101763.84;5112624;28;20105;-64
2023/03/20 05:39:25;;;;;;;11.50;6.82;;;;;;;8.84;100.00;101760.06;5113957;28;20085;-65
2023/03/20 05:42:16;;;;;;;19.17;9.85;;;;;;;8.92;100.00;101748.88;5072943;28;20491;-64
2023/03/20 05:44:43;;;;;;;16.38;9.25;;;;;;;8.92;100.00;101759.75;5113293;28;20044;-65
2023/03/20 05:47:21;;;;;;;17.98;10.88;;;;;;;8.84;100.00;101757.34;5101260;28;20126;-65
2023/03/20 05:50:25;;;;;;;19.65;11.02;;;;;;;8.79;100.00;101762.66;5094101;28;20052;-65
2023/03/20 05:53:10;;;;;;;17.67;10.63;;;;;;;8.71;100.00;101771.16;5118592;28;20043;-64
2023/03/20 05:55:53;;;;;;;17.40;10.15;;;;;;;8.69;100.00;101776.00;5117258;28;20035;-65
2023/03/20 05:58:51;;;;;;;12.98;5.82;;;;;;;8.83;100.00;101773.91;5103975;27;20075;-65
2023/03/20 06:01:32;;;;;;;15.82;8.32;;;;;;;9.00;100.00;101787.66;5101332;28;20061;-64
2023/03/20 06:04:13;;;;;;;11.13;6.28;;;;;;;8.95;100.00;101794.59;5100863;28;20063;-63
2023/03/20 06:07:05;;;;;;;12.88;4.47;;;;;;;8.96;100.00;101785.38;5089794;28;20047;-64
2023/03/20 06:09:34;;;;;;;10.90;4.90;;;;;;;8.92;100.00;101783.34;5095737;28;20123;-65
2023/03/20 06:12:06;;;;;;;17.27;9.70;;;;;;;8.85;100.00;101790.78;5094616;28;20514;-65
2023/03/20 06:14:35;;;;;;;13.68;6.20;;;;;;;8.86;100.00;101785.13;5120575;28;20040;-64
2023/03/20 06:17:11;;;;;;;18.15;9.48;;;;;;;8.76;100.00;101800.34;5119104;28;20032;-64
2023/03/20 06:19:40;;;;;;;19.73;8.65;;;;;;;8.75;100.00;101804.94;5078737;28;20051;-63
2023/03/20 06:22:08;;;;;;;10.80;4.85;;;;;;;8.82;100.00;101800.22;5096429;28;20078;-65
2023/03/20 06:24:37;;;;;;;16.08;7.40;;;;;;;8.81;100.00;101804.03;5107998;27;20059;-65
2023/03/20 06:27:05;;;;;;;19.08;8.52;;;;;;;8.79;100.00;101806.13;5116183;28;20047;-66
2023/03/20 06:29:33;;;;;;;15.85;8.77;;;;;;;8.74;100.00;101806.00;5088629;28;20471;-64
2023/03/20 06:32:16;;;;;;;12.23;4.32;;;;;;;8.83;100.00;101810.06;5093764;27;20043;-65
2023/03/20 06:34:45;;;;;;;12.95;6.60;;;;;;;8.90;100.00;101808.06;5097152;27;21430;-65
2023/03/20 06:37:13;;;;;;;19.25;8.80;;;;;;;8.90;100.00;101805.34;5113838;28;20055;-65
2023/03/20 06:39:41;;;;;;;12.45;5.68;;;;;;;8.99;100.00;101811.25;4757845;28;10000114;-66
2023/03/20 06:42:11;;;;;;;15.43;8.48;;;;;;;9.03;100.00;101808.91;5111158;27;20578;-65
2023/03/20 06:44:43;;;;;;;16.02;8.10;;;;;;;8.90;100.00;101805.34;5096262;28;20047;-65
2023/03/20 06:47:15;;;;;;;15.40;7.60;;;;;;;8.83;100.00;101812.78;5066776;28;20117;-64
2023/03/20 06:49:43;;;;;;;17.13;8.07;;;;;;;8.80;100.00;101815.94;5107775;28;20081;-64
2023/03/20 06:52:17;;;;;;;20.08;7.55;;;;;;;8.86;100.00;101817.72;5090788;28;20044;-65
2023/03/20 06:54:55;;;;;;;14.13;6.97;;;;;;;8.82;100.00;101827.41;5096493;27;20047;-64
2023/03/20 06:57:23;;;;;;;14.82;7.18;;;;;;;8.82;100.00;101821.16;5111830;28;20118;-62
2023/03/20 06:59:50;;;;;;;15.32;6.68;;;;;;;8.99;100.00;101822.13;5094478;28;20749;-65
2023/03/20 07:02:18;;;;;;;7.25;3.95;;;;;;;8.99;100.00;101824.03;5092930;28;20048;-63
2023/03/20 07:04:46;;;;;;;16.02;7.32;;;;;;;9.20;100.00;101820.75;5076563;28;20458;-64
2023/03/20 07:07:14;;;;;;;16.13;6.18;;;;;;;9.23;100.00;101823.00;5095352;28;20062;-64
2023/03/20 07:09:42;;;;;;;10.48;5.32;;;;;;;9.16;100.00;101820.41;5095526;28;20506;-64
2023/03/20 07:12:13;;;;;;;15.32;7.38;;;;;;;8.99;100.00;101834.91;5095796;28;20052;-63
2023/03/20 07:14:42;;;;;;;18.52;7.63;;;;;;;8.88;100.00;101841.97;5091627;28;20415;-63
2023/03/20 07:17:15;;;;;;;11.65;3.78;;;;;;;8.93;100.00;101842.94;5101319;28;20119;-64
2023/03/20 07:19:43;;;;;;;14.93;7.60;;;;;;;9.03;100.00;101838.81;5080838;28;20403;-64
2023/03/20 07:22:24;;;;;;;18.05;8.63;;;;;;;8.94;100.00;101846.47;5114663;28;20048;-65
2023/03/20 07:25:01;;;;;;;13.73;7.68;;;;;;;8.84;100.00;101847.03;5114490;28;20061;-65
2023/03/20 07:27:29;;;;;;;11.40;5.18;;;;;;;8.83;100.00;101842.66;5097600;28;20048;-66
2023/03/20 07:29:57;;;;;;;15.63;7.30;;;;;;;8.83;100.00;101856.25;5114479;28;20059;-65
2023/03/20 07:32:25;;;;;;;16.83;7.22;;;;;;;8.88;100.00;101844.69;5114318;28;20407;-64
2023/03/20 07:34:54;;;;;;;14.23;6.65;;;;;;;8.84;100.00;101847.03;5114628;28;20048;-65
2023/03/20 07:37:21;;;;;;;11.90;5.80;;;;;;;8.92;100.00;101846.72;5098458;28;20074;-64
2023/03/20 07:40:02;;;;;;;14.45;7.35;;;;;;;8.99;100.00;101853.94;5099857;28;20044;-65
2023/03/20 07:42:32;;;;;;;15.18;7.35;;;;;;;9.04;100.00;101848.63;5111809;27;20452;-64
2023/03/20 07:45:15;;;;;;;18.10;7.63;;;;;;;9.04;100.00;101852.16;5117640;28;20036;-64
2023/03/20 07:47:47;;;;;;;18.77;7.38;;;;;;;8.99;100.00;101853.94;5129201;28;20047;-63
2023/03/20 07:50:16;;;;;;;16.92;7.70;;;;;;;8.94;100.00;101852.72;5104512;28;20101;-64
2023/03/20 07:52:48;;;;;;;12.38;6.90;;;;;;;9.01;100.00;101841.75;5119617;28;20113;-63
2023/03/20 07:55:16;;;;;;;6.88;3.15;;;;;;;9.09;100.00;101837.88;5100188;28;20067;-63
2023/03/20 07:57:48;;;;;;;6.97;2.97;;;;;;;9.13;100.00;101837.16;5115354;27;20043;-64
2023/03/20 08:00:17;;;;;;;19.25;8.07;;;;;;;9.03;100.00;101842.34;5125175;28;20052;-62
2023/03/20 08:02:45;;;;;;;18.02;8.40;;;;;;;8.82;98.74;101849.13;5125114;28;20479;-65
2023/03/20 08:05:13;;;;;;;21.73;8.88;;;;;;;8.68;99.37;101853.09;5114262;28;20047;-65
2023/03/20 08:07:41;;;;;;;17.05;8.00;;;;;;;8.66;100.00;101847.06;5111735;27;20139;-64
2023/03/20 08:10:09;;;;;;;18.70;8.95;;;;;;;8.58;99.12;101847.41;5114773;28;20098;-64
2023/03/20 08:12:37;;;;;;;19.65;9.02;;;;;;;8.57;99.87;101845.75;5114297;28;20134;-65
2023/03/20 08:15:05;;;;;;;20.52;9.05;;;;;;;8.57;100.00;101845.75;5111676;28;20036;-65
2023/03/20 08:17:33;;;;;;;13.93;6.30;;;;;;;8.67;100.00;101846.03;5113031;28;20079;-65
2023/03/20 08:20:01;;;;;;;16.33;6.90;;;;;;;8.75;99.08;101842.97;5097685;28;20531;-65
2023/03/20 08:22:28;;;;;;;19.42;8.02;;;;;;;8.98;100.00;101841.41;5076704;28;20048;-64
2023/03/20 08:24:56;;;;;;;15.10;8.02;;;;;;;8.91;100.00;101846.94;5094351;28;20051;-64
2023/03/20 08:27:24;;;;;;;16.83;7.90;;;;;;;9.00;100.00;101844.72;5094076;28;20127;-63
2023/03/20 08:29:52;;;;;;;16.05;7.25;;;;;;;8.94;98.93;101847.28;5095629;27;20144;-64
2023/03/20 08:32:20;;;;;;;13.00;5.88;;;;;;;9.05;100.00;101844.84;5094453;28;20077;-64
2023/03/20 08:34:47;;;;;;;22.73;8.23;;;;;;;9.19;100.00;101838.16;5109662;28;20044;-63
2023/03/20 08:37:15;;;;;;;19.77;5.82;;;;;;;9.33;100.00;101842.31;5112997;28;20395;-63
2023/03/20 08:39:43;;;;;;;17.02;8.30;;;;;;;9.25;100.00;101836.38;5112167;27;20055;-64
2023/03/20 08:42:11;;;;;;;18.27;7.45;;;;;;;9.25;100.00;101839.91;5100181;27;20044;-65
2023/03/20 08:44:38;;;;;;;18.05;6.78;;;;;;;9.56;100.00;101843.38;5093291;28;20143;-65
2023/03/20 08:47:06;;;;;;;16.42;5.90;;;;;;;9.57;100.00;101839.59;5093609;28;20391;-64
2023/03/20 08:49:34;;;;;;;23.88;6.53;;;;;;;9.64;100.00;101844.91;5092816;28;20131;-64
2023/03/20 08:52:02;;;;;;;14.63;6.07;;;;;;;9.54;100.00;101842.78;5076044;28;20039;-65
2023/03/20 08:54:30;;;;;;;13.27;4.60;;;;;;;9.39;100.00;101835.91;5094149;28;20065;-65
2023/03/20 08:56:57;;;;;;;17.98;6.10;;;;;;;9.53;100.00;101838.44;5092831;28;20450;-64
2023/03/20 08:59:25;;;;;;;18.88;7.57;;;;;;;9.59;100.00;101835.56;5093743;28;20051;-64
2023/03/20 09:01:53;;;;;;;21.58;7.30;;;;;;;9.31;100.00;101828.13;5093733;28;20130;-64
2023/03/20 09:04:22;;;;;;;18.25;6.25;;;;;;;9.47;100.00;101823.84;5092048;28;20097;-65
2023/03/20 09:06:50;;;;;;;18.75;6.07;;;;;;;9.33;100.00;101828.72;5102114;28;20044;-65
2023/03/20 09:09:20;;;;;;;14.93;5.88;;;;;;;9.53;100.00;101827.53;5093354;28;20475;-64
2023/03/20 09:11:48;;;;;;;12.95;4.63;;;;;;;9.73;100.00;101828.00;5075812;28;20485;-64
2023/03/20 09:14:15;;;;;;;15.95;5.32;;;;;;;9.97;100.00;101828.81;5092272;28;20059;-64
2023/03/20 09:16:43;;;;;;;16.30;4.80;;;;;;;10.05;100.00;101824.88;5092163;28;20051;-64
2023/03/20 09:19:11;;;;;;;14.15;5.25;;;;;;;10.13;100.00;101832.69;5075566;28;20161;-65
2023/03/20 09:21:38;;;;;;;16.05;4.70;;;;;;;10.03;100.00;101832.47;5077757;28;20488;-64
2023/03/20 09:24:06;;;;;;;15.85;4.95;;;;;;;9.92;100.00;101844.19;5079763;28;20050;-64
2023/03/20 09:26:34;;;;;;;16.95;6.07;;;;;;;9.91;100.00;101839.81;5045628;28;20512;-64
2023/03/20 09:29:02;;;;;;;13.73;5.40;;;;;;;9.61;100.00;101840.78;5095933;28;20117;-64
2023/03/20 09:31:29;;;;;;;15.05;6.20;;;;;;;9.46;100.00;101843.16;5096137;28;20052;-65
2023/03/20 09:33:57;;;;;;;17.88;6.97;;;;;;;9.56;100.00;101840.66;5097199;28;20044;-65
2023/03/20 09:36:25;;;;;;;11.43;4.20;;;;;;;9.58;100.00;101836.63;5097322;28;20044;-65
2023/03/20 09:38:52;;;;;;;17.40;6.50;;;;;;;9.44;100.00;101850.72;5097306;28;20060;-64
2023/03/20 09:41:26;;;;;;;13.85;5.60;;;;;;;9.49;100.00;101848.94;5097436;28;20104;-65
2023/03/20 09:44:03;;;;;;;17.67;6.05;;;;;;;9.31;99.18;101863.47;5095870;28;20047;-65
2023/03/20 09:47:09;;;;;;;16.27;6.18;;;;;;;9.16;100.00;101868.50;5079463;28;20399;-65
2023/03/20 09:49:53;;;;;;;18.92;6.68;;;;;;;9.23;100.00;101871.94;5050830;28;20056;-64
2023/03/20 09:52:33;;;;;;;17.45;5.75;;;;;;;9.24;100.00;101862.75;5080346;28;20044;-65
2023/03/20 09:55:23;;;;;;;16.23;5.85;;;;;;;9.14;99.80;101874.19;5097381;28;20048;-65
2023/03/20 09:57:53;;;;;;;12.43;5.45;;;;;;;9.15;100.00;101875.00;5079187;28;20048;-64
2023/03/20 10:00:27;;;;;;;13.18;5.18;;;;;;;9.55;100.00;101858.06;5095837;28;20051;-65
2023/03/20 10:03:28;;;;;;;16.08;5.18;;;;;;;9.66;100.00;101861.84;5095557;28;20380;-65
2023/03/20 10:06:11;;;;;;;13.23;3.97;;;;;;;9.66;100.00;101857.22;5067414;28;20056;-65
2023/03/20 10:08:39;;;;;;;17.67;5.25;;;;;;;9.60;100.00;101855.47;5096699;28;20373;-65
2023/03/20 10:11:37;;;;;;;14.77;5.18;;;;;;;9.51;100.00;101854.16;5096813;28;20122;-64
2023/03/20 10:14:25;;;;;;;11.50;4.80;;;;;;;9.28;100.00;101854.94;5096838;28;20122;-64
2023/03/20 10:17:05;;;;;;;13.23;4.80;;;;;;;9.22;99.95;101854.00;5095115;28;20044;-64
2023/03/20 10:19:44;;;;;;;13.95;4.20;;;;;;;9.15;100.00;101847.81;5096777;28;20105;-66
2023/03/20 10:22:24;;;;;;;16.85;6.03;;;;;;;9.48;100.00;101847.28;5095563;28;20059;-65
2023/03/20 10:25:02;;;;;;;16.10;5.53;;;;;;;9.72;100.00;101853.56;5110334;28;20078;-64
2023/03/20 10:27:38;;;;;;;16.92;6.07;;;;;;;9.85;100.00;101846.22;5081085;28;20051;-65
2023/03/20 10:30:15;;;;;;;;;;;;;;;10.13;100.00;101838.13;5114905;28;20050;-65
2023/03/20 10:32:56;;;;;;;16.50;5.25;;;;;;;10.13;100.00;101832.69;5095934;28;20303;-64
2023/03/20 10:35:33;;;;;;;14.15;4.85;;;;;;;9.91;100.00;101839.81;5095048;28;20048;-65
2023/03/20 10:38:25;;;;;;;12.23;4.13;;;;;;;9.74;100.00;101835.13;5095188;28;20071;-65
2023/03/20 10:40:56;;;;;;;13.07;4.32;;;;;;;10.11;100.00;101837.53;5095314;28;20059;-64
2023/03/20 10:43:32;;;;;;;16.77;5.80;;;;;;;10.06;100.00;101842.88;5095215;28;20052;-64
2023/03/20 10:46:03;;;;;;;13.95;4.57;;;;;;;9.84;100.00;101830.94;5078570;28;20066;-64
2023/03/20 10:48:33;;;;;;;12.80;3.85;;;;;;;10.11;100.00;101837.53;5078117;28;20058;-64
2023/03/20 10:51:02;;;;;;;13.63;4.88;;;;;;;10.33;100.00;101836.94;5096071;28;20130;-64
2023/03/20 10:53:53;;;;;;;14.43;4.45;;;;;;;10.12;100.00;101830.19;5094925;28;20051;-65
2023/03/20 10:56:41;;;;;;;11.68;4.03;;;;;;;10.22;100.00;101825.81;5095104;28;20449;-64
2023/03/20 10:59:18;;;;;;;14.13;4.20;;;;;;;10.24;100.00;101818.19;5094718;28;20075;-64
2023/03/20 11:01:45;;;;;;;12.57;4.80;;;;;;;10.12;100.00;101824.75;5094818;28;20040;-66
2023/03/20 11:04:13;;;;;;;19.02;5.38;;;;;;;9.43;100.00;101835.44;5106602;27;20689;-66
2023/03/20 11:06:47;;;;;;;15.13;5.03;;;;;;;9.20;100.00;101834.34;5112443;28;20043;-65
2023/03/20 11:09:19;;;;;;;13.95;4.75;;;;;;;9.06;100.00;101832.91;5098917;28;20051;-64
2023/03/20 11:11:50;;;;;;;11.55;3.92;;;;;;;9.01;100.00;101830.88;5103123;28;20052;-64
2023/03/20 11:14:26;;;;;;;7.20;3.17;;;;;;;9.36;100.00;101822.78;5099790;28;20064;-65
2023/03/20 11:16:56;;;;;;;15.23;4.18;;;;;;;9.52;100.00;101820.44;5095311;28;20071;-64
2023/03/20 11:19:24;;;;;;;11.85;3.20;;;;;;;9.92;100.00;101814.25;5094783;28;20052;-63
2023/03/20 11:21:59;;;;;;;13.57;4.65;;;;;;;9.99;100.00;101814.97;5097119;28;20078;-63
2023/03/20 11:24:35;;;;;;;13.27;4.57;;;;;;;9.92;100.00;101808.81;5080561;28;20050;-64
2023/03/20 11:27:15;;;;;;;;;;;;;;;9.79;100.00;101808.00;4469774;27;10000675;-63
2023/03/20 11:29:42;;;;;;;12.90;4.32;;;;;;;9.88;100.00;101800.28;5100897;28;19991;-63
2023/03/20 11:32:15;;;;;;;8.18;3.30;;;;;;;10.21;100.00;101802.34;5082558;28;20055;-64
2023/03/20 11:34:43;;;;;;;10.93;4.32;;;;;;;10.46;100.00;101801.22;5074191;28;20064;-65
2023/03/20 11:37:24;;;;;;;7.85;3.25;;;;;;;10.33;100.00;101798.78;5112576;27;20142;-61
2023/03/20 11:40:00;;;;;;;13.13;4.85;;;;;;;10.58;100.00;101796.56;5115185;28;20054;-63
2023/03/20 11:42:29;;;;;;;16.50;4.80;;;;;;;10.32;100.00;101797.13;5117850;28;20050;-63
2023/03/20 11:44:59;;;;;;;9.40;3.50;;;;;;;10.28;100.00;101785.06;5097473;27;20051;-64